Startpagina
METAR-TAF:

METAR-TAF

Vliegvelden :

Seward, Alaska, Verenigde Staten

breedte: 60-07N, lengte: 149-27W, hoogte: 9 m

Actueel weer

Dit bericht is 58 minuten geleden gemaakt, om 22:53 UTC
Wind 3 kt uit het zuiden
Temperatuur 6°C
Vochtigheid 100%
Druk 1001 hPa
Zicht: 16.1 km
Geheel bewolkt op 6500 ft

METAR: PAWD 212253Z AUTO 19003KT 10SM OVC065 06/06 A2957 RMK AO2 SLP014 T00610056 TSNO

Tijdstip: 15:51 (23:51 UTC)


TAF: ontbreekt

Waarnemingen en weersverwachtingen van meer dan 4000 vliegvelden (METAR en TAF).

De beschikbare stations zijn de gele en rode punten op de kaart.

Ga met uw muis naar het station om de naam te zien.

Klik dan om waarnemingen en weersverwachtingen te zien.

kaart wijzigen: klik op de groene knoppen met een zwart kruis om in te zoomen, op de groene knop met een streepje om uit te zoomen of op de groene pijlen voor aangrenzende kaarten.


METAR-TAF: